Time;durP1;ratioP1;P1;durP2;ratioP2;P2;SDS_P1;SDS_P2;PMS_P1;PMS_P2;Temp;Humidity;BMP_temperature;BMP_pressure;BME280_temperature;BME280_humidity;BME280_pressure;Samples;Min_cycle;Max_cycle;Signal;HPM_P1;HPM_P2
2021/12/19 00:09:45;;;;;;;86.77;25.73;;;;;;;-0.47;100.00;97761.28;5013715;28;20032;-76
2021/12/19 00:12:11;;;;;;;58.93;26.03;;;;;;;-0.41;100.00;97753.31;5013568;28;20467;-76
2021/12/19 00:14:36;;;;;;;59.93;24.67;;;;;;;-0.40;100.00;97757.59;5029438;28;20072;-77
2021/12/19 00:17:03;;;;;;;58.23;24.80;;;;;;;-0.34;100.00;97761.69;5015533;28;20322;-76
2021/12/19 00:19:29;;;;;;;71.10;24.10;;;;;;;-0.41;100.00;97763.66;5012804;28;20060;-76
2021/12/19 00:21:54;;;;;;;68.20;22.20;;;;;;;-0.36;100.00;97764.34;4998000;28;20495;-76
2021/12/19 00:24:20;;;;;;;53.40;23.63;;;;;;;-0.37;100.00;97757.50;5021444;28;20038;-76
2021/12/19 00:26:46;;;;;;;57.40;23.77;;;;;;;-0.40;100.00;97762.78;5023847;28;20043;-76
2021/12/19 00:29:13;;;;;;;75.93;25.60;;;;;;;-0.42;100.00;97750.81;5040392;28;20033;-76
2021/12/19 00:31:39;;;;;;;79.00;23.00;;;;;;;-0.41;100.00;97760.22;4994999;28;20029;-78
2021/12/19 00:34:05;;;;;;;68.67;23.50;;;;;;;-0.37;100.00;97746.28;5009627;28;20476;-76
2021/12/19 00:36:30;;;;;;;75.27;22.63;;;;;;;-0.36;100.00;97748.84;5015449;28;20043;-76
2021/12/19 00:38:57;;;;;;;63.20;21.90;;;;;;;-0.40;100.00;97744.69;5008003;28;20549;-77
2021/12/19 00:41:23;;;;;;;65.20;24.00;;;;;;;-0.40;100.00;97742.09;5017269;28;20060;-76
2021/12/19 00:43:56;;;;;;;77.67;22.70;;;;;;;-0.33;100.00;97742.72;5021353;28;20547;-76
2021/12/19 00:46:24;;;;;;;56.63;23.13;;;;;;;-0.32;100.00;97739.22;4992674;28;20029;-77
2021/12/19 00:48:53;;;;;;;68.83;22.63;;;;;;;-0.34;100.00;97741.84;5005632;28;21008;-77
2021/12/19 00:51:24;;;;;;;54.67;22.30;;;;;;;-0.33;100.00;97732.38;5002895;28;20464;-77
2021/12/19 00:53:52;;;;;;;55.90;18.90;;;;;;;-0.37;100.00;97744.56;4997791;28;20499;-77
2021/12/19 00:56:17;;;;;;;85.60;23.17;;;;;;;-0.37;100.00;97736.81;5016981;28;20553;-79
2021/12/19 00:58:44;;;;;;;88.07;21.77;;;;;;;-0.38;100.00;97736.88;5019126;28;20518;-77
2021/12/19 01:01:11;;;;;;;114.73;21.77;;;;;;;-0.44;100.00;97734.50;4995107;28;20044;-76
2021/12/19 01:03:38;;;;;;;92.57;19.23;;;;;;;-0.49;100.00;97716.56;5015400;28;20464;-77
2021/12/19 01:06:04;;;;;;;116.37;18.43;;;;;;;-0.46;100.00;97721.63;5007827;28;20551;-76
2021/12/19 01:08:30;;;;;;;67.33;17.37;;;;;;;-0.44;100.00;97719.81;5010940;28;20539;-77
2021/12/19 01:10:56;;;;;;;70.03;16.60;;;;;;;-0.48;100.00;97719.09;4996695;28;20543;-76
2021/12/19 01:13:22;;;;;;;45.13;13.77;;;;;;;-0.46;100.00;97719.06;5017013;28;20032;-77
2021/12/19 01:15:50;;;;;;;67.50;16.60;;;;;;;-0.46;100.00;97708.72;4999832;28;20064;-76
2021/12/19 01:18:16;;;;;;;46.37;13.77;;;;;;;-0.48;100.00;97710.50;5006518;28;20511;-77
2021/12/19 01:20:42;;;;;;;49.70;14.90;;;;;;;-0.45;100.00;97712.97;5031533;28;20483;-77
2021/12/19 01:23:10;;;;;;;49.70;15.83;;;;;;;-0.45;100.00;97718.16;5012692;28;20904;-77
2021/12/19 01:25:35;;;;;;;55.43;14.80;;;;;;;-0.42;100.00;97723.22;5030066;28;20259;-77
2021/12/19 01:28:02;;;;;;;41.47;14.47;;;;;;;-0.43;100.00;97720.69;5035588;28;20992;-78
2021/12/19 01:30:28;;;;;;;41.13;14.13;;;;;;;-0.48;100.00;97724.25;5010497;28;20041;-76
2021/12/19 01:32:54;;;;;;;46.70;14.53;;;;;;;-0.48;100.00;97724.25;5008758;28;20463;-76
2021/12/19 01:35:21;;;;;;;35.33;13.23;;;;;;;-0.49;100.00;97726.91;5025059;28;20045;-76
2021/12/19 01:37:47;;;;;;;46.97;12.03;;;;;;;-0.54;100.00;97729.69;4996770;28;20048;-77
2021/12/19 01:40:15;;;;;;;48.57;12.07;;;;;;;-0.54;100.00;97724.50;5028030;28;20444;-76
2021/12/19 01:42:44;;;;;;;75.10;14.27;;;;;;;-0.59;100.00;97713.47;5021172;28;20535;-76
2021/12/19 01:45:13;;;;;;;35.50;13.23;;;;;;;-0.53;100.00;97722.75;5012881;28;20464;-76
2021/12/19 01:47:40;;;;;;;55.00;14.53;;;;;;;-0.58;100.00;97732.41;4990870;28;20456;-76
2021/12/19 01:50:08;;;;;;;36.40;15.23;;;;;;;-0.48;100.00;97728.59;5014725;28;20487;-76
2021/12/19 01:52:34;;;;;;;49.43;15.20;;;;;;;-0.52;100.00;97727.84;5025945;28;20531;-76
2021/12/19 01:55:00;;;;;;;42.13;14.50;;;;;;;-0.46;100.00;97729.38;5020615;28;20546;-76
2021/12/19 01:57:26;;;;;;;33.97;14.17;;;;;;;-0.44;100.00;97730.16;5016156;28;20042;-77
2021/12/19 01:59:54;;;;;;;30.03;13.93;;;;;;;-0.42;100.00;97738.72;5027118;28;20029;-77
2021/12/19 02:02:20;;;;;;;32.57;12.63;;;;;;;-0.35;100.00;97729.84;5002237;28;20548;-76
2021/12/19 02:04:47;;;;;;;39.90;11.63;;;;;;;-0.45;100.00;97727.66;4998448;28;20463;-76
2021/12/19 02:07:13;;;;;;;45.87;10.20;;;;;;;-0.41;100.00;97721.47;5002164;28;20545;-77
2021/12/19 02:09:41;;;;;;;40.80;11.93;;;;;;;-0.45;100.00;97707.81;4998678;28;20542;-76
2021/12/19 02:12:08;;;;;;;33.27;11.80;;;;;;;-0.46;100.00;97695.78;4993417;28;20594;-76
2021/12/19 02:14:34;;;;;;;45.83;11.40;;;;;;;-0.44;100.00;97693.97;5023147;28;20461;-76
2021/12/19 02:17:01;;;;;;;35.63;10.53;;;;;;;-0.46;100.00;97706.13;5030529;28;20459;-78
2021/12/19 02:19:29;;;;;;;25.27;10.47;;;;;;;-0.40;100.00;97699.88;5007638;28;20468;-76
2021/12/19 02:21:55;;;;;;;34.73;10.70;;;;;;;-0.45;100.00;97699.22;5021836;28;21092;-77
2021/12/19 02:24:21;;;;;;;49.03;12.17;;;;;;;-0.45;100.00;97702.63;5003194;28;20449;-77
2021/12/19 02:26:47;;;;;;;43.80;11.40;;;;;;;-0.46;100.00;97706.13;5007075;28;20113;-76
2021/12/19 02:29:12;;;;;;;22.40;10.40;;;;;;;-0.41;100.00;97699.03;4996761;28;20569;-77
2021/12/19 02:31:40;;;;;;;43.50;11.07;;;;;;;-0.42;100.00;97692.19;5025647;28;20030;-77
2021/12/19 02:34:20;;;;;;;36.73;9.40;;;;;;;-0.43;100.00;97684.50;5018237;28;20081;-77
2021/12/19 02:50:08;;;;;;;29.67;9.00;;;;;;;-0.48;100.00;97675.16;5013992;28;20829;-77
2021/12/19 02:52:34;;;;;;;18.37;7.63;;;;;;;-0.40;100.00;97681.78;5012361;28;20455;-76
2021/12/19 02:55:00;;;;;;;22.87;7.40;;;;;;;-0.43;100.00;97681.94;5019263;28;20528;-77
2021/12/19 02:57:26;;;;;;;26.90;8.30;;;;;;;-0.41;100.00;97680.94;4997688;28;21293;-77
2021/12/19 02:59:51;;;;;;;20.00;7.90;;;;;;;-0.42;100.00;97670.69;5018647;28;20120;-76
2021/12/19 03:02:18;;;;;;;36.43;8.23;;;;;;;-0.46;100.00;97669.94;5008289;28;20463;-76
2021/12/19 03:05:12;;;;;;;44.43;8.83;;;;;;;-0.43;100.00;97662.09;5027235;28;20025;-77
2021/12/19 03:07:42;;;;;;;28.87;7.77;;;;;;;-0.37;100.00;97669.63;4998027;28;20492;-76
2021/12/19 03:18:13;;;;;;;21.30;8.03;;;;;;;-0.42;100.00;97648.25;5003259;28;20496;-76
2021/12/19 03:20:41;;;;;;;33.90;7.50;;;;;;;-0.50;100.00;97653.72;5010101;28;20593;-76
2021/12/19 03:23:09;;;;;;;23.60;7.60;;;;;;;-0.48;100.00;97646.72;5028101;28;20483;-77
2021/12/19 03:25:35;;;;;;;18.73;6.90;;;;;;;-0.41;100.00;97647.34;5013880;28;20458;-76
2021/12/19 03:28:03;;;;;;;24.37;6.90;;;;;;;-0.45;100.00;97648.38;5032043;28;20471;-76
2021/12/19 03:30:30;;;;;;;24.20;6.83;;;;;;;-0.44;100.00;97634.53;5016710;28;20470;-76
2021/12/19 03:32:57;;;;;;;28.33;8.23;;;;;;;-0.50;100.00;97648.56;5015476;28;20542;-77
2021/12/19 03:35:24;;;;;;;17.93;7.13;;;;;;;-0.52;100.00;97634.84;4999912;28;20479;-76
2021/12/19 03:37:51;;;;;;;23.97;7.33;;;;;;;-0.47;100.00;97632.06;4997573;28;20475;-77
2021/12/19 03:40:35;;;;;;;34.57;7.10;;;;;;;-0.49;100.00;97624.38;5012821;28;20451;-76
2021/12/19 03:43:06;;;;;;;27.52;6.45;;;;;;;-0.59;100.00;97627.38;5028281;28;20440;-76
2021/12/19 03:45:34;;;;;;;27.63;6.10;;;;;;;-0.57;100.00;97622.97;5024476;28;20048;-76
2021/12/19 03:48:01;;;;;;;22.27;6.73;;;;;;;-0.59;100.00;97623.03;4991509;28;20838;-77
2021/12/19 03:50:27;;;;;;;19.90;6.60;;;;;;;-0.53;100.00;97625.41;5033203;28;20448;-76
2021/12/19 03:52:54;;;;;;;30.37;6.83;;;;;;;-0.48;100.00;97626.06;5009563;28;20499;-76
2021/12/19 03:55:24;;;;;;;15.57;6.37;;;;;;;-0.46;100.00;97618.28;5031876;28;20036;-76
2021/12/19 03:57:50;;;;;;;36.70;7.37;;;;;;;-0.64;100.00;97616.34;5015305;28;20452;-76
2021/12/19 04:00:18;;;;;;;29.87;7.07;;;;;;;-0.57;100.00;97615.22;5029873;28;20454;-77
2021/12/19 04:02:46;;;;;;;34.30;6.83;;;;;;;-0.66;100.00;97615.59;4994472;28;20026;-76
2021/12/19 04:05:12;;;;;;;43.80;6.77;;;;;;;-0.74;100.00;97615.84;5007090;28;20490;-77
2021/12/19 04:07:37;;;;;;;50.87;7.07;;;;;;;-0.70;100.00;97604.53;5015627;28;20482;-77
2021/12/19 04:10:03;;;;;;;38.30;6.67;;;;;;;-0.65;100.00;97597.44;5015452;28;20064;-77
2021/12/19 04:12:30;;;;;;;44.87;7.27;;;;;;;-0.63;100.00;97594.81;5015448;28;20060;-76
2021/12/19 04:14:56;;;;;;;57.30;8.20;;;;;;;-0.69;100.00;97592.44;5014454;28;20854;-77
2021/12/19 04:17:21;;;;;;;35.53;7.30;;;;;;;-0.74;100.00;97587.44;5006773;28;20471;-76
2021/12/19 04:19:49;;;;;;;30.50;6.80;;;;;;;-0.71;100.00;97588.16;4992395;28;20730;-76
2021/12/19 04:22:15;;;;;;;42.47;7.53;;;;;;;-0.76;100.00;97591.81;5010884;28;20120;-76
2021/12/19 04:24:40;;;;;;;48.30;7.57;;;;;;;-0.83;100.00;97590.38;5018441;28;20537;-76
2021/12/19 04:27:06;;;;;;;32.13;7.20;;;;;;;-0.74;100.00;97583.13;5000890;28;21172;-76
2021/12/19 04:29:33;;;;;;;38.43;6.90;;;;;;;-0.75;100.00;97586.59;5034442;28;20112;-77
2021/12/19 04:31:58;;;;;;;56.10;8.07;;;;;;;-0.83;100.00;97595.53;5021320;28;20028;-76
2021/12/19 04:34:24;;;;;;;31.17;6.57;;;;;;;-0.78;100.00;97588.44;5039431;28;20459;-76
2021/12/19 04:36:57;;;;;;;37.17;7.40;;;;;;;-0.74;100.00;97588.28;4999489;28;20064;-77
2021/12/19 04:39:34;;;;;;;31.10;6.63;;;;;;;-0.79;100.00;97589.34;5011174;28;20034;-77
2021/12/19 04:42:59;;;;;;;35.73;7.73;;;;;;;-0.78;100.00;97596.19;4994651;28;20037;-76
2021/12/19 05:04:02;;;;;;;58.20;8.80;;;;;;;-0.90;100.00;97574.25;5012717;28;21075;-76
2021/12/19 05:14:45;;;;;;;44.90;9.23;;;;;;;-0.93;100.00;97566.63;4996780;28;20952;-76
2021/12/19 05:17:17;;;;;;;43.40;8.32;;;;;;;-0.92;100.00;97564.88;5014432;28;20475;-76
2021/12/19 05:19:48;;;;;;;29.20;7.57;;;;;;;-0.91;100.00;97562.22;5014392;28;20036;-76
2021/12/19 05:22:14;;;;;;;31.23;8.27;;;;;;;-0.94;100.00;97564.91;5017260;28;21085;-76
2021/12/19 05:25:22;;;;;;;35.20;7.37;;;;;;;-0.91;100.00;97561.38;5003807;28;21013;-77
2021/12/19 05:27:31;;;;;;;46.50;8.43;;;;;;;-0.92;100.00;97560.53;5003082;28;20825;-77
2021/12/19 05:29:57;;;;;;;30.40;7.80;;;;;;;-0.96;100.00;97556.41;5008075;28;21414;-76
2021/12/19 05:32:22;;;;;;;31.13;8.77;;;;;;;-0.96;100.00;97567.56;5013125;28;20543;-77
2021/12/19 05:34:48;;;;;;;27.87;7.33;;;;;;;-0.97;100.00;97562.47;5012860;28;20067;-75
2021/12/19 05:45:26;;;;;;;58.17;10.47;;;;;;;-1.00;100.00;97567.75;4997847;28;20469;-76
2021/12/19 05:47:52;;;;;;;46.17;13.20;;;;;;;-0.98;100.00;97566.78;4989610;28;20463;-76
2021/12/19 05:50:22;;;;;;;46.27;7.40;;;;;;;-0.98;100.00;97568.50;5022659;28;20036;-76
2021/12/19 05:52:49;;;;;;;44.63;7.90;;;;;;;-0.97;100.00;97575.38;5035906;28;20037;-76
2021/12/19 05:55:16;;;;;;;35.80;7.53;;;;;;;-0.90;100.00;97569.09;5020702;28;20467;-75
2021/12/19 05:57:43;;;;;;;37.00;7.73;;;;;;;-0.91;100.00;97569.97;5013542;28;20583;-76
2021/12/19 06:00:13;;;;;;;38.17;8.37;;;;;;;-0.93;100.00;97558.03;5016631;28;20559;-76
2021/12/19 06:02:40;;;;;;;20.63;6.37;;;;;;;-0.84;100.00;97555.09;5010589;28;20919;-76
2021/12/19 06:05:07;;;;;;;18.60;7.30;;;;;;;-0.83;100.00;97547.31;5007830;28;20469;-76
2021/12/19 06:07:33;;;;;;;21.07;6.93;;;;;;;-0.84;100.00;97545.63;5017321;28;21060;-76
2021/12/19 06:09:59;;;;;;;25.63;7.07;;;;;;;-0.89;100.00;97555.28;4993847;28;20530;-76
2021/12/19 06:12:25;;;;;;;33.03;7.63;;;;;;;-0.83;100.00;97557.63;5021005;28;20037;-76
2021/12/19 06:14:51;;;;;;;25.80;7.30;;;;;;;-0.89;100.00;97552.69;5003221;28;20472;-76
2021/12/19 06:17:17;;;;;;;35.47;7.50;;;;;;;-0.88;100.00;97538.88;4994507;28;20486;-77
2021/12/19 06:19:42;;;;;;;24.93;6.70;;;;;;;-0.87;100.00;97538.00;5029575;28;20032;-77
2021/12/19 06:22:08;;;;;;;19.87;6.93;;;;;;;-0.89;100.00;97536.38;5010435;28;20099;-76
2021/12/19 06:24:35;;;;;;;20.53;7.50;;;;;;;-0.83;100.00;97530.97;5011598;28;20025;-76
2021/12/19 06:27:01;;;;;;;18.83;6.33;;;;;;;-0.85;100.00;97532.75;5019301;28;20044;-77
2021/12/19 06:29:29;;;;;;;20.23;6.57;;;;;;;-0.83;100.00;97525.81;5012274;28;20468;-76
2021/12/19 06:31:56;;;;;;;16.80;5.97;;;;;;;-0.87;100.00;97527.66;5026585;28;20463;-76
2021/12/19 06:34:22;;;;;;;24.63;6.37;;;;;;;-0.86;100.00;97534.50;5004371;28;20496;-76
2021/12/19 06:36:48;;;;;;;18.43;7.37;;;;;;;-0.85;100.00;97528.44;5022069;28;21017;-76
2021/12/19 06:39:13;;;;;;;19.80;7.07;;;;;;;-0.87;100.00;97522.50;4996967;28;20472;-76
2021/12/19 06:41:39;;;;;;;27.60;6.93;;;;;;;-0.86;100.00;97524.19;5033629;28;20376;-76
2021/12/19 06:44:05;;;;;;;42.43;10.93;;;;;;;-0.82;100.00;97533.47;5017656;28;20028;-76
2021/12/19 06:46:31;;;;;;;39.67;11.93;;;;;;;-0.85;100.00;97528.44;4998740;28;20113;-77
2021/12/19 06:48:57;;;;;;;31.63;11.13;;;;;;;-0.84;100.00;97537.88;4995521;28;20618;-76
2021/12/19 06:51:23;;;;;;;31.27;11.20;;;;;;;-0.88;100.00;97544.03;5019538;28;20033;-76
2021/12/19 06:53:49;;;;;;;41.50;11.57;;;;;;;-0.88;100.00;97545.78;4995216;28;20618;-76
2021/12/19 06:56:16;;;;;;;29.07;11.20;;;;;;;-0.85;100.00;97548.25;5014938;28;20535;-76
2021/12/19 06:58:42;;;;;;;34.80;11.90;;;;;;;-0.81;100.00;97540.31;4989220;28;20033;-78
2021/12/19 07:01:09;;;;;;;30.60;12.03;;;;;;;-0.85;100.00;97537.91;4992701;28;20506;-76
2021/12/19 07:03:34;;;;;;;33.90;11.30;;;;;;;-0.86;100.00;97547.41;5009300;28;20514;-76
2021/12/19 07:06:00;;;;;;;29.90;10.97;;;;;;;-0.79;100.00;97540.28;5006820;28;20511;-76
2021/12/19 07:08:26;;;;;;;31.87;11.47;;;;;;;-0.84;100.00;97540.47;5020380;28;20132;-76
2021/12/19 07:10:52;;;;;;;41.00;11.67;;;;;;;-0.86;100.00;97534.50;4997726;28;20149;-76
2021/12/19 07:13:21;;;;;;;44.70;13.17;;;;;;;-0.84;100.00;97529.25;5012200;28;20047;-76
2021/12/19 07:15:51;;;;;;;41.40;11.93;;;;;;;-0.79;100.00;97537.69;5001871;28;20045;-77
2021/12/19 07:18:17;;;;;;;38.67;11.53;;;;;;;-0.77;100.00;97539.34;5008357;28;20479;-76
2021/12/19 07:20:43;;;;;;;33.53;13.03;;;;;;;-0.77;100.00;97541.03;5006338;28;20546;-76
2021/12/19 07:23:14;;;;;;;31.40;12.97;;;;;;;-0.76;100.00;97527.25;5013503;28;20471;-77
2021/12/19 07:25:40;;;;;;;38.60;12.37;;;;;;;-0.78;100.00;97518.72;5029987;28;20436;-76
2021/12/19 07:28:07;;;;;;;28.80;10.73;;;;;;;-0.80;100.00;97523.94;5036597;28;20544;-76
2021/12/19 07:30:36;;;;;;;26.80;10.93;;;;;;;-0.77;100.00;97521.25;5009842;28;20889;-77
2021/12/19 07:33:03;;;;;;;32.63;11.77;;;;;;;-0.75;100.00;97511.69;5014435;28;20436;-76
2021/12/19 07:35:30;;;;;;;31.03;11.13;;;;;;;-0.84;100.00;97514.63;5037568;28;20507;-78
2021/12/19 07:37:56;;;;;;;30.47;12.93;;;;;;;-0.77;100.00;97510.06;5007887;28;20471;-77
2021/12/19 07:40:24;;;;;;;46.90;12.67;;;;;;;-0.77;100.00;97510.91;4991951;28;20470;-76
2021/12/19 07:42:52;;;;;;;40.47;14.70;;;;;;;-0.72;100.00;97519.31;5034039;28;20044;-76
2021/12/19 07:45:19;;;;;;;34.63;12.87;;;;;;;-0.68;100.00;97514.03;4988808;28;20433;-77
2021/12/19 07:47:45;;;;;;;33.33;13.50;;;;;;;-0.71;100.00;97513.25;4995805;28;20479;-77
2021/12/19 07:50:12;;;;;;;36.47;12.60;;;;;;;-0.77;100.00;97505.75;5007091;28;20428;-76
2021/12/19 07:52:38;;;;;;;33.80;13.37;;;;;;;-0.74;100.00;97510.81;5017944;28;20487;-75
2021/12/19 07:55:04;;;;;;;33.87;12.97;;;;;;;-0.75;100.00;97514.28;5001753;28;20507;-76
2021/12/19 07:57:30;;;;;;;33.97;13.47;;;;;;;-0.73;100.00;97507.31;5012824;28;20029;-77
2021/12/19 07:59:56;;;;;;;31.47;11.67;;;;;;;-0.75;100.00;97511.69;5027966;28;20549;-76
2021/12/19 08:02:21;;;;;;;32.20;11.30;;;;;;;-0.71;100.00;97504.66;5003661;28;20030;-77
2021/12/19 08:04:47;;;;;;;31.07;12.10;;;;;;;-0.67;100.00;97510.53;5015018;28;20036;-76
2021/12/19 08:07:14;;;;;;;25.87;12.00;;;;;;;-0.70;100.00;97503.78;5008996;28;20118;-76
2021/12/19 08:09:57;;;;;;;36.43;11.47;;;;;;;-0.69;100.00;97492.53;5018894;28;20091;-77
2021/12/19 08:12:23;;;;;;;30.13;11.65;;;;;;;-0.64;100.00;97479.44;4996709;28;20479;-76
2021/12/19 08:14:48;;;;;;;26.30;10.37;;;;;;;-0.61;100.00;97469.81;5029961;28;20028;-76
2021/12/19 08:17:14;;;;;;;28.50;11.03;;;;;;;-0.63;100.00;97483.72;5049078;28;20045;-75
2021/12/19 08:19:40;;;;;;;27.70;10.57;;;;;;;-0.60;100.00;97483.59;5017569;28;20060;-75
2021/12/19 08:22:06;;;;;;;22.93;9.33;;;;;;;-0.61;100.00;97471.56;5051932;28;20562;-75
2021/12/19 08:24:31;;;;;;;24.67;10.87;;;;;;;-0.46;100.00;97472.72;5011432;28;20044;-75
2021/12/19 08:26:57;;;;;;;22.67;9.30;;;;;;;-0.54;100.00;97471.28;5010474;28;20040;-76
2021/12/19 08:29:23;;;;;;;22.27;8.40;;;;;;;-0.58;100.00;97482.63;5047323;28;20044;-75
2021/12/19 08:31:48;;;;;;;23.43;9.87;;;;;;;-0.46;100.00;97488.22;5014430;28;20029;-76
2021/12/19 08:34:14;;;;;;;25.13;9.30;;;;;;;-0.45;100.00;97485.56;5029455;28;20030;-76
2021/12/19 08:36:40;;;;;;;22.77;9.80;;;;;;;-0.51;100.00;97485.81;5012951;28;20052;-75
2021/12/19 08:39:07;;;;;;;30.63;14.73;;;;;;;-0.34;100.00;97485.97;5038050;28;20110;-74
2021/12/19 08:41:33;;;;;;;33.93;18.30;;;;;;;-0.41;100.00;97481.13;5013615;28;20037;-75
2021/12/19 08:43:59;;;;;;;20.23;11.10;;;;;;;-0.48;100.00;97475.34;5005835;28;20462;-76
2021/12/19 08:46:26;;;;;;;30.00;16.03;;;;;;;-0.43;100.00;97482.94;5011541;28;20406;-75
2021/12/19 08:48:51;;;;;;;23.70;12.80;;;;;;;-0.37;100.00;97486.13;4996801;28;20071;-75
2021/12/19 08:51:17;;;;;;;22.70;13.83;;;;;;;-0.39;100.00;97490.50;5032172;28;20480;-75
2021/12/19 08:53:43;;;;;;;17.97;7.93;;;;;;;-0.27;100.00;97490.00;5024626;28;20701;-75
2021/12/19 08:56:08;;;;;;;20.50;8.67;;;;;;;-0.35;100.00;97489.47;4994149;28;20084;-75
2021/12/19 08:58:34;;;;;;;14.53;6.73;;;;;;;-0.34;100.00;97483.38;5028922;28;20060;-75
2021/12/19 09:01:01;;;;;;;20.53;8.70;;;;;;;-0.31;100.00;97485.00;5036849;28;20044;-75
2021/12/19 09:03:30;;;;;;;19.80;9.23;;;;;;;-0.20;100.00;97474.22;5032190;28;20417;-74
2021/12/19 09:05:57;;;;;;;19.83;9.00;;;;;;;-0.33;100.00;97466.16;5017037;28;20443;-75
2021/12/19 09:08:23;;;;;;;17.17;8.47;;;;;;;-0.27;100.00;97474.50;5019724;28;20977;-75
2021/12/19 09:10:49;;;;;;;14.93;7.37;;;;;;;-0.24;100.00;97471.75;5028166;28;20477;-74
2021/12/19 09:13:14;;;;;;;18.70;7.40;;;;;;;-0.28;100.00;97469.38;5009417;28;20033;-76
2021/12/19 09:15:40;;;;;;;19.53;7.70;;;;;;;-0.24;100.00;97471.75;5021227;28;20029;-76
2021/12/19 09:18:06;;;;;;;16.40;9.03;;;;;;;-0.25;100.00;97469.25;5005142;28;20116;-76
2021/12/19 09:20:31;;;;;;;16.53;7.57;;;;;;;-0.29;100.00;97468.53;4996051;28;20037;-74
2021/12/19 09:22:57;;;;;;;14.57;7.00;;;;;;;-0.30;100.00;97466.88;5013230;28;20036;-77
2021/12/19 09:25:23;;;;;;;16.63;6.67;;;;;;;-0.29;100.00;97455.63;5013415;28;20037;-75
2021/12/19 09:27:49;;;;;;;14.80;7.20;;;;;;;-0.19;100.00;97455.25;4996241;28;20427;-75
2021/12/19 09:30:15;;;;;;;16.47;7.67;;;;;;;-0.19;100.00;97447.50;4997539;28;20575;-76
2021/12/19 09:32:40;;;;;;;20.77;7.87;;;;;;;-0.18;100.00;97451.75;5014717;28;20033;-76
2021/12/19 09:35:07;;;;;;;16.77;7.37;;;;;;;-0.14;100.00;97440.38;5026903;28;20052;-74
2021/12/19 09:37:35;;;;;;;15.07;7.17;;;;;;;-0.18;100.00;97449.16;5032047;28;20025;-76
2021/12/19 09:40:04;;;;;;;22.23;10.37;;;;;;;-0.16;100.00;97442.19;5032344;28;20460;-76
2021/12/19 09:42:34;;;;;;;20.67;9.77;;;;;;;-0.05;100.00;97440.00;5023963;28;20413;-75
2021/12/19 09:45:02;;;;;;;19.53;7.83;;;;;;;-0.07;100.00;97434.91;5029747;28;20428;-75
2021/12/19 09:47:28;;;;;;;17.17;7.97;;;;;;;-0.02;100.00;97432.94;5030348;28;20573;-74
2021/12/19 09:49:57;;;;;;;23.73;11.63;;;;;;;-0.16;100.00;97431.84;5010139;28;20473;-75
2021/12/19 09:52:23;;;;;;;24.17;11.40;;;;;;;-0.19;100.00;97426.81;4993445;28;20677;-75
2021/12/19 09:54:48;;;;;;;22.53;9.47;;;;;;;-0.20;100.00;97433.72;5016580;28;21019;-75
2021/12/19 09:57:14;;;;;;;28.73;9.50;;;;;;;-0.16;100.00;97424.09;5031789;28;20032;-75
2021/12/19 09:59:43;;;;;;;26.13;9.23;;;;;;;-0.17;100.00;97425.81;5041677;28;20029;-76
2021/12/19 10:02:09;;;;;;;20.83;10.03;;;;;;;-0.03;100.00;97417.50;5034765;28;20055;-74
2021/12/19 10:04:40;;;;;;;22.67;10.07;;;;;;;-0.12;100.00;97412.72;5027659;28;20452;-76
2021/12/19 10:07:11;;;;;;;24.57;9.60;;;;;;;-0.12;100.00;97408.38;5032126;28;20506;-74
2021/12/19 10:09:49;;;;;;;24.00;9.57;;;;;;;-0.19;100.00;97399.22;5015441;28;20482;-75
2021/12/19 10:12:38;;;;;;;22.47;9.10;;;;;;;-0.15;100.00;97399.91;5042699;28;20424;-76
2021/12/19 10:15:06;;;;;;;23.00;9.87;;;;;;;-0.17;100.00;97396.53;5026340;28;20487;-75
2021/12/19 10:17:32;;;;;;;21.20;8.63;;;;;;;-0.18;100.00;97385.38;5021630;28;20432;-75
2021/12/19 10:20:02;;;;;;;69.30;36.07;;;;;;;-0.10;100.00;97392.78;5008528;28;20468;-76
2021/12/19 10:22:43;;;;;;;35.60;20.70;;;;;;;-0.15;100.00;97381.81;4997892;28;20456;-76
2021/12/19 10:25:24;;;;;;;30.13;10.33;;;;;;;-0.15;100.00;97368.91;4997339;28;21213;-76
2021/12/19 10:27:49;;;;;;;26.57;9.90;;;;;;;-0.11;100.00;97360.09;5008443;28;20466;-76
2021/12/19 10:30:31;;;;;;;29.00;10.93;;;;;;;-0.18;100.00;97363.84;5024308;28;20447;-75
2021/12/19 10:33:03;;;;;;;28.30;14.67;;;;;;;-0.15;100.00;97367.16;4987438;28;20033;-76
2021/12/19 10:35:34;;;;;;;31.60;11.57;;;;;;;-0.16;100.00;97365.47;5024563;28;20515;-76
2021/12/19 10:38:01;;;;;;;31.13;14.57;;;;;;;-0.14;100.00;97360.22;5017865;28;20563;-73
2021/12/19 10:40:28;;;;;;;24.83;9.73;;;;;;;-0.11;100.00;97355.75;5017818;28;20525;-75
2021/12/19 10:43:01;;;;;;;27.47;9.13;;;;;;;-0.11;100.00;97353.16;4999477;28;20939;-75
2021/12/19 10:45:43;;;;;;;28.07;9.00;;;;;;;-0.20;100.00;97350.13;5012298;28;20448;-75
2021/12/19 10:48:28;;;;;;;20.03;8.67;;;;;;;-0.09;100.00;97347.97;5029807;28;20509;-75
2021/12/19 10:51:04;;;;;;;22.93;9.40;;;;;;;-0.01;100.00;97345.84;5027611;28;21183;-75
2021/12/19 10:53:45;;;;;;;31.13;12.97;;;;;;;0.01;100.00;97344.06;5018944;28;20523;-75
2021/12/19 10:56:13;;;;;;;22.37;8.90;;;;;;;-0.02;100.00;97350.19;5003666;28;20485;-75
2021/12/19 10:58:39;;;;;;;22.13;9.43;;;;;;;-0.03;100.00;97348.53;5009084;28;20483;-75
2021/12/19 11:01:20;;;;;;;22.07;9.10;;;;;;;-0.06;100.00;97340.06;5030163;28;20451;-74
2021/12/19 11:03:46;;;;;;;23.30;8.47;;;;;;;-0.18;100.00;97343.16;5012873;28;20624;-75
2021/12/19 11:06:20;;;;;;;25.43;10.10;;;;;;;-0.14;100.00;97335.19;5021482;28;20558;-75
2021/12/19 11:08:46;;;;;;;19.00;8.20;;;;;;;-0.18;100.00;97323.31;5019586;28;20128;-75
2021/12/19 11:11:29;;;;;;;24.17;8.40;;;;;;;-0.15;100.00;97315.44;5008673;28;20472;-75
2021/12/19 11:13:55;;;;;;;20.63;7.90;;;;;;;-0.13;100.00;97311.06;5005617;28;20480;-75
2021/12/19 11:16:21;;;;;;;17.73;7.63;;;;;;;-0.11;100.00;97298.03;5000563;28;20453;-75
2021/12/19 11:18:48;;;;;;;21.30;6.70;;;;;;;-0.14;100.00;97290.41;5009458;28;20482;-76
2021/12/19 11:21:14;;;;;;;18.27;7.43;;;;;;;-0.13;100.00;97285.19;5018496;28;20488;-75
2021/12/19 11:23:40;;;;;;;13.00;6.20;;;;;;;-0.15;100.00;97281.81;5007839;28;20475;-75
2021/12/19 11:26:06;;;;;;;20.30;6.97;;;;;;;-0.07;100.00;97284.06;5006768;28;20471;-75
2021/12/19 11:28:33;;;;;;;19.60;8.87;;;;;;;0.03;100.00;97282.75;5036923;28;20025;-75
2021/12/19 11:30:59;;;;;;;17.47;7.83;;;;;;;0.03;100.00;97280.16;4999000;28;20550;-74
2021/12/19 11:33:56;;;;;;;22.23;8.20;;;;;;;-0.04;100.00;97281.34;5010965;28;20439;-75
2021/12/19 11:36:24;;;;;;;22.47;10.67;;;;;;;0.04;100.00;97271.50;5013884;28;20500;-75
2021/12/19 11:38:52;;;;;;;23.33;10.70;;;;;;;0.04;100.00;97271.50;4985672;28;20496;-75
2021/12/19 11:41:18;;;;;;;18.17;8.60;;;;;;;0.02;100.00;97268.16;5001814;28;20468;-75
2021/12/19 11:43:46;;;;;;;30.03;9.00;;;;;;;-0.04;100.00;97269.25;5034896;28;20541;-75
2021/12/19 11:46:20;;;;;;;20.93;8.13;;;;;;;0.04;100.00;97257.75;5015793;28;20981;-75
2021/12/19 11:49:01;;;;;;;22.57;8.27;;;;;;;-0.02;100.00;97259.69;5012732;28;20516;-75
2021/12/19 11:51:27;;;;;;;16.47;7.87;;;;;;;-0.03;100.00;97252.03;5034700;28;20439;-74
2021/12/19 11:54:11;;;;;;;23.97;8.27;;;;;;;-0.06;100.00;97245.22;5005524;28;21040;-75
2021/12/19 11:56:37;;;;;;;22.00;7.97;;;;;;;0.03;100.00;97240.53;4990603;28;20503;-76
2021/12/19 11:59:18;;;;;;;19.17;8.07;;;;;;;0.02;100.00;97228.53;5005460;28;20530;-75
2021/12/19 12:01:44;;;;;;;22.60;8.60;;;;;;;0.06;100.00;97227.47;4992974;28;20426;-75
2021/12/19 12:04:14;;;;;;;19.10;8.37;;;;;;;0.01;100.00;97232.03;5034723;28;20842;-75
2021/12/19 12:06:54;;;;;;;33.37;12.93;;;;;;;0.01;100.00;97219.94;5018442;28;20447;-75
2021/12/19 12:09:25;;;;;;;17.13;7.60;;;;;;;-0.02;100.00;97213.16;5012166;28;21023;-75
2021/12/19 12:12:00;;;;;;;22.00;9.90;;;;;;;-0.02;100.00;97213.16;5013111;28;20427;-75
2021/12/19 12:14:30;;;;;;;23.97;9.37;;;;;;;0.02;100.00;97211.25;5037970;28;20475;-75
2021/12/19 12:17:00;;;;;;;17.93;7.93;;;;;;;0.04;100.00;97211.19;5018502;28;21255;-75
2021/12/19 12:19:48;;;;;;;21.27;7.73;;;;;;;0.06;100.00;97201.59;4994129;28;20482;-75
2021/12/19 12:25:06;;;;;;;17.17;7.57;;;;;;;0.09;100.00;97186.78;5009461;28;20464;-75
2021/12/19 12:27:37;;;;;;;16.97;7.03;;;;;;;0.00;100.00;97187.22;5017937;28;20505;-75